sensor_id;sensor_type;location;lat;lon;timestamp;noise_LAeq;noise_LA_min;noise_LA_max;noise_LA01;noise_LA95
49215;Laerm;45943;53.148;8.204;2023-08-12T00:01:20;39.65;34.15;51.50;;
49215;Laerm;45943;53.148;8.204;2023-08-12T00:03:50;43.91;34.91;58.35;;
49215;Laerm;45943;53.148;8.204;2023-08-12T00:06:19;43.18;34.04;57.85;;
49215;Laerm;45943;53.148;8.204;2023-08-12T00:08:54;38.96;33.53;48.55;;
49215;Laerm;45943;53.148;8.204;2023-08-12T00:11:48;39.22;33.53;46.23;;
49215;Laerm;45943;53.148;8.204;2023-08-12T00:14:16;39.28;33.53;43.36;;
49215;Laerm;45943;53.148;8.204;2023-08-12T00:16:45;39.21;34.50;45.61;;
49215;Laerm;45943;53.148;8.204;2023-08-12T00:19:28;39.22;34.04;45.99;;
49215;Laerm;45943;53.148;8.204;2023-08-12T00:21:57;40.13;32.28;51.50;;
49215;Laerm;45943;53.148;8.204;2023-08-12T00:24:26;40.18;34.04;52.01;;
49215;Laerm;45943;53.148;8.204;2023-08-12T00:26:55;41.13;34.15;52.94;;
49215;Laerm;45943;53.148;8.204;2023-08-12T00:29:23;38.72;31.14;41.58;;
49215;Laerm;45943;53.148;8.204;2023-08-12T00:31:49;38.71;31.49;41.74;;
49215;Laerm;45943;53.148;8.204;2023-08-12T00:34:19;38.54;32.28;55.80;;
49215;Laerm;45943;53.148;8.204;2023-08-12T00:36:47;39.66;34.04;50.26;;
49215;Laerm;45943;53.148;8.204;2023-08-12T00:39:16;38.73;33.53;42.21;;
49215;Laerm;45943;53.148;8.204;2023-08-12T00:41:50;42.02;34.04;62.54;;
49215;Laerm;45943;53.148;8.204;2023-08-12T00:44:16;38.66;30.52;45.54;;
49215;Laerm;45943;53.148;8.204;2023-08-12T00:46:48;38.71;32.28;51.20;;
49215;Laerm;45943;53.148;8.204;2023-08-12T00:49:18;38.73;33.53;41.90;;
49215;Laerm;45943;53.148;8.204;2023-08-12T00:51:45;43.20;34.04;58.96;;
49215;Laerm;45943;53.148;8.204;2023-08-12T00:54:24;38.45;32.28;41.74;;
49215;Laerm;45943;53.148;8.204;2023-08-12T00:56:52;38.69;32.95;43.07;;
49215;Laerm;45943;53.148;8.204;2023-08-12T00:59:21;41.86;34.50;55.84;;
49215;Laerm;45943;53.148;8.204;2023-08-12T01:01:50;45.06;32.95;61.37;;
49215;Laerm;45943;53.148;8.204;2023-08-12T01:04:16;39.00;33.69;46.14;;
49215;Laerm;45943;53.148;8.204;2023-08-12T01:06:42;39.55;34.04;44.71;;
49215;Laerm;45943;53.148;8.204;2023-08-12T01:09:29;39.05;33.53;46.93;;
49215;Laerm;45943;53.148;8.204;2023-08-12T01:12:18;39.47;33.53;54.18;;
49215;Laerm;45943;53.148;8.204;2023-08-12T01:15:04;43.18;39.41;62.87;;
49215;Laerm;45943;53.148;8.204;2023-08-12T01:17:33;47.64;40.06;61.48;;
49215;Laerm;45943;53.148;8.204;2023-08-12T01:20:02;48.56;40.18;64.49;;
49215;Laerm;45943;53.148;8.204;2023-08-12T01:22:54;45.91;39.68;65.88;;
49215;Laerm;45943;53.148;8.204;2023-08-12T01:25:22;45.51;40.38;62.94;;
49215;Laerm;45943;53.148;8.204;2023-08-12T01:27:48;46.94;40.52;64.33;;
49215;Laerm;45943;53.148;8.204;2023-08-12T01:30:14;50.41;37.72;70.27;;
49215;Laerm;45943;53.148;8.204;2023-08-12T01:35:17;45.58;37.72;63.69;;
49215;Laerm;45943;53.148;8.204;2023-08-12T01:37:47;49.18;41.49;66.11;;
49215;Laerm;45943;53.148;8.204;2023-08-12T01:40:15;45.07;38.48;63.28;;
49215;Laerm;45943;53.148;8.204;2023-08-12T01:42:42;43.86;38.13;64.14;;
49215;Laerm;45943;53.148;8.204;2023-08-12T01:45:08;44.45;37.92;61.50;;
49215;Laerm;45943;53.148;8.204;2023-08-12T01:47:34;56.59;47.19;73.26;;
49215;Laerm;45943;53.148;8.204;2023-08-12T01:50:00;52.56;42.82;68.08;;
49215;Laerm;45943;53.148;8.204;2023-08-12T01:52:26;48.99;43.36;64.73;;
49215;Laerm;45943;53.148;8.204;2023-08-12T01:54:52;63.73;46.35;74.41;;
49215;Laerm;45943;53.148;8.204;2023-08-12T01:57:18;52.33;44.32;69.77;;
49215;Laerm;45943;53.148;8.204;2023-08-12T01:59:44;53.79;49.29;69.33;;
49215;Laerm;45943;53.148;8.204;2023-08-12T02:02:11;52.49;47.19;68.33;;
49215;Laerm;45943;53.148;8.204;2023-08-12T02:04:37;52.47;47.36;67.23;;
49215;Laerm;45943;53.148;8.204;2023-08-12T02:07:04;52.58;45.90;68.53;;
49215;Laerm;45943;53.148;8.204;2023-08-12T02:09:30;51.23;46.57;67.64;;
49215;Laerm;45943;53.148;8.204;2023-08-12T02:11:56;52.59;45.96;66.06;;
49215;Laerm;45943;53.148;8.204;2023-08-12T02:14:23;51.08;46.32;67.05;;
49215;Laerm;45943;53.148;8.204;2023-08-12T02:16:49;53.25;48.36;68.82;;
49215;Laerm;45943;53.148;8.204;2023-08-12T02:19:15;53.09;47.29;65.75;;
49215;Laerm;45943;53.148;8.204;2023-08-12T02:21:41;49.29;43.94;67.31;;
49215;Laerm;45943;53.148;8.204;2023-08-12T02:24:08;48.36;43.48;66.94;;
49215;Laerm;45943;53.148;8.204;2023-08-12T02:26:34;45.26;41.98;60.70;;
49215;Laerm;45943;53.148;8.204;2023-08-12T02:29:00;45.40;42.49;59.71;;
49215;Laerm;45943;53.148;8.204;2023-08-12T02:31:26;45.73;40.93;62.86;;
49215;Laerm;45943;53.148;8.204;2023-08-12T02:33:52;44.21;39.68;60.52;;
49215;Laerm;45943;53.148;8.204;2023-08-12T02:36:18;45.76;41.31;69.07;;
49215;Laerm;45943;53.148;8.204;2023-08-12T02:38:44;45.08;41.58;59.48;;
49215;Laerm;45943;53.148;8.204;2023-08-12T02:41:10;45.94;40.52;65.42;;
49215;Laerm;45943;53.148;8.204;2023-08-12T02:43:37;45.71;38.30;62.31;;
49215;Laerm;45943;53.148;8.204;2023-08-12T02:46:03;40.95;37.29;59.12;;
49215;Laerm;45943;53.148;8.204;2023-08-12T02:48:29;40.21;36.80;52.53;;
49215;Laerm;45943;53.148;8.204;2023-08-12T02:50:55;41.54;37.29;69.71;;
49215;Laerm;45943;53.148;8.204;2023-08-12T02:53:21;41.36;37.72;59.06;;
49215;Laerm;45943;53.148;8.204;2023-08-12T02:55:48;42.03;38.30;58.67;;
49215;Laerm;45943;53.148;8.204;2023-08-12T02:58:14;43.73;38.97;72.94;;
49215;Laerm;45943;53.148;8.204;2023-08-12T03:00:43;42.36;39.12;59.24;;
49215;Laerm;45943;53.148;8.204;2023-08-12T03:03:12;43.54;38.97;64.98;;
49215;Laerm;45943;53.148;8.204;2023-08-12T03:05:38;46.73;39.94;62.87;;
49215;Laerm;45943;53.148;8.204;2023-08-12T03:08:04;44.83;40.83;60.79;;
49215;Laerm;45943;53.148;8.204;2023-08-12T03:10:31;44.93;39.81;59.25;;
49215;Laerm;45943;53.148;8.204;2023-08-12T03:12:58;49.71;43.36;66.97;;
49215;Laerm;45943;53.148;8.204;2023-08-12T03:15:24;51.92;44.50;69.75;;
49215;Laerm;45943;53.148;8.204;2023-08-12T03:17:50;51.34;45.74;68.30;;
49215;Laerm;45943;53.148;8.204;2023-08-12T03:20:16;51.84;41.74;69.39;;
49215;Laerm;45943;53.148;8.204;2023-08-12T03:22:43;43.92;40.06;61.13;;
49215;Laerm;45943;53.148;8.204;2023-08-12T03:25:09;46.02;39.81;63.93;;
49215;Laerm;45943;53.148;8.204;2023-08-12T03:27:41;51.08;41.49;62.82;;
49215;Laerm;45943;53.148;8.204;2023-08-12T03:30:08;49.17;42.49;64.85;;
49215;Laerm;45943;53.148;8.204;2023-08-12T03:32:34;51.70;42.21;67.20;;
49215;Laerm;45943;53.148;8.204;2023-08-12T03:35:00;50.75;41.74;66.35;;
49215;Laerm;45943;53.148;8.204;2023-08-12T03:37:26;52.34;45.33;71.09;;
49215;Laerm;45943;53.148;8.204;2023-08-12T03:39:52;55.89;42.82;70.27;;
49215;Laerm;45943;53.148;8.204;2023-08-12T03:42:18;46.86;41.82;64.41;;
49215;Laerm;45943;53.148;8.204;2023-08-12T03:44:44;45.75;42.21;64.03;;
49215;Laerm;45943;53.148;8.204;2023-08-12T03:47:10;47.73;40.93;62.57;;
49215;Laerm;45943;53.148;8.204;2023-08-12T03:49:37;44.20;40.30;62.14;;
49215;Laerm;45943;53.148;8.204;2023-08-12T03:52:06;46.72;39.27;64.85;;
49215;Laerm;45943;53.148;8.204;2023-08-12T03:54:35;42.49;39.12;60.65;;
49215;Laerm;45943;53.148;8.204;2023-08-12T03:57:30;42.54;38.65;60.07;;
49215;Laerm;45943;53.148;8.204;2023-08-12T03:59:59;43.71;39.41;62.65;;
49215;Laerm;45943;53.148;8.204;2023-08-12T04:02:25;45.39;41.40;65.36;;
49215;Laerm;45943;53.148;8.204;2023-08-12T04:04:54;48.24;42.63;62.81;;
49215;Laerm;45943;53.148;8.204;2023-08-12T04:07:20;45.17;41.66;63.26;;
49215;Laerm;45943;53.148;8.204;2023-08-12T04:09:46;47.12;40.18;62.26;;
49215;Laerm;45943;53.148;8.204;2023-08-12T04:12:12;46.84;40.30;62.39;;
49215;Laerm;45943;53.148;8.204;2023-08-12T04:14:38;42.70;39.27;59.62;;
49215;Laerm;45943;53.148;8.204;2023-08-12T04:17:06;49.17;41.03;65.52;;
49215;Laerm;45943;53.148;8.204;2023-08-12T04:19:32;49.34;42.63;66.17;;
49215;Laerm;45943;53.148;8.204;2023-08-12T04:21:58;57.76;42.69;74.05;;
49215;Laerm;45943;53.148;8.204;2023-08-12T04:24:24;44.07;39.94;60.58;;
49215;Laerm;45943;53.148;8.204;2023-08-12T04:26:50;46.83;39.81;62.37;;
49215;Laerm;45943;53.148;8.204;2023-08-12T04:29:27;45.95;40.52;61.03;;
49215;Laerm;45943;53.148;8.204;2023-08-12T04:32:41;50.47;38.65;65.52;;
49215;Laerm;45943;53.148;8.204;2023-08-12T04:46:33;41.73;38.12;53.47;;
49215;Laerm;45943;53.148;8.204;2023-08-12T04:49:29;46.35;39.68;62.19;;
49215;Laerm;45943;53.148;8.204;2023-08-12T04:52:04;47.37;38.48;61.99;;
49215;Laerm;45943;53.148;8.204;2023-08-12T04:54:38;46.15;37.51;62.51;;
49215;Laerm;45943;53.148;8.204;2023-08-12T04:57:05;42.12;37.72;60.89;;
49215;Laerm;45943;53.148;8.204;2023-08-12T04:59:58;45.40;37.72;61.54;;
49215;Laerm;45943;53.148;8.204;2023-08-12T05:02:35;41.86;37.51;66.73;;
49215;Laerm;45943;53.148;8.204;2023-08-12T05:17:37;45.98;37.05;61.10;;
49215;Laerm;45943;53.148;8.204;2023-08-12T05:20:29;52.01;36.26;69.43;;
49215;Laerm;45943;53.148;8.204;2023-08-12T05:26:17;46.96;37.29;63.21;;
49215;Laerm;45943;53.148;8.204;2023-08-12T05:32:47;44.65;37.72;61.37;;
49215;Laerm;45943;53.148;8.204;2023-08-12T05:43:18;44.88;37.72;59.71;;
49215;Laerm;45943;53.148;8.204;2023-08-12T06:13:02;40.71;36.26;47.86;;
49215;Laerm;45943;53.148;8.204;2023-08-12T06:16:15;48.86;36.26;64.61;;
49215;Laerm;45943;53.148;8.204;2023-08-12T06:19:07;49.52;36.54;64.81;;
49215;Laerm;45943;53.148;8.204;2023-08-12T06:29:26;52.43;37.51;64.93;;
49215;Laerm;45943;53.148;8.204;2023-08-12T06:41:35;55.83;37.29;71.35;;
49215;Laerm;45943;53.148;8.204;2023-08-12T06:44:18;44.15;36.54;60.41;;
49215;Laerm;45943;53.148;8.204;2023-08-12T06:47:20;42.39;36.26;60.78;;
49215;Laerm;45943;53.148;8.204;2023-08-12T06:53:39;48.56;36.54;62.71;;
49215;Laerm;45943;53.148;8.204;2023-08-12T06:56:39;48.33;37.05;64.71;;
49215;Laerm;45943;53.148;8.204;2023-08-12T07:00:03;48.31;34.91;64.37;;
49215;Laerm;45943;53.148;8.204;2023-08-12T07:06:03;49.80;35.64;64.55;;
49215;Laerm;45943;53.148;8.204;2023-08-12T07:11:50;46.91;37.51;61.93;;
49215;Laerm;45943;53.148;8.204;2023-08-12T07:14:38;50.44;36.54;65.51;;
49215;Laerm;45943;53.148;8.204;2023-08-12T07:17:10;49.44;37.05;64.37;;
49215;Laerm;45943;53.148;8.204;2023-08-12T07:26:26;48.06;37.29;61.15;;
49215;Laerm;45943;53.148;8.204;2023-08-12T07:32:05;48.80;35.29;62.06;;
49215;Laerm;45943;53.148;8.204;2023-08-12T07:34:32;47.27;37.51;59.92;;
49215;Laerm;45943;53.148;8.204;2023-08-12T07:36:58;48.97;37.92;61.46;;
49215;Laerm;45943;53.148;8.204;2023-08-12T07:39:24;56.85;39.27;71.78;;
49215;Laerm;45943;53.148;8.204;2023-08-12T07:41:53;47.92;38.30;60.95;;
49215;Laerm;45943;53.148;8.204;2023-08-12T07:44:19;58.03;37.92;87.94;;
49215;Laerm;45943;53.148;8.204;2023-08-12T07:46:45;50.42;38.97;68.10;;
49215;Laerm;45943;53.148;8.204;2023-08-12T07:49:11;49.49;43.74;68.04;;
49215;Laerm;45943;53.148;8.204;2023-08-12T07:51:37;47.54;38.30;59.22;;
49215;Laerm;45943;53.148;8.204;2023-08-12T07:54:04;50.18;37.92;72.38;;
49215;Laerm;45943;53.148;8.204;2023-08-12T07:56:30;48.72;38.97;62.72;;
49215;Laerm;45943;53.148;8.204;2023-08-12T07:58:56;46.71;37.92;60.57;;
49215;Laerm;45943;53.148;8.204;2023-08-12T08:01:22;51.16;38.12;61.20;;
49215;Laerm;45943;53.148;8.204;2023-08-12T08:03:48;47.41;37.51;59.71;;
49215;Laerm;45943;53.148;8.204;2023-08-12T08:06:14;54.51;39.55;70.77;;
49215;Laerm;45943;53.148;8.204;2023-08-12T08:08:40;46.27;38.30;58.81;;
49215;Laerm;45943;53.148;8.204;2023-08-12T08:11:06;47.02;38.48;59.73;;
49215;Laerm;45943;53.148;8.204;2023-08-12T08:13:32;44.46;38.30;58.42;;
49215;Laerm;45943;53.148;8.204;2023-08-12T08:15:58;47.96;37.51;59.75;;
49215;Laerm;45943;53.148;8.204;2023-08-12T08:18:24;45.34;37.92;59.14;;
49215;Laerm;45943;53.148;8.204;2023-08-12T08:20:50;54.07;37.92;69.50;;
49215;Laerm;45943;53.148;8.204;2023-08-12T08:23:16;48.62;37.05;62.14;;
49215;Laerm;45943;53.148;8.204;2023-08-12T08:25:42;48.63;37.72;58.52;;
49215;Laerm;45943;53.148;8.204;2023-08-12T08:28:08;45.88;37.05;62.20;;
49215;Laerm;45943;53.148;8.204;2023-08-12T08:30:34;48.54;36.54;61.31;;
49215;Laerm;45943;53.148;8.204;2023-08-12T08:33:00;49.89;38.30;66.57;;
49215;Laerm;45943;53.148;8.204;2023-08-12T08:35:26;46.39;38.30;63.32;;
49215;Laerm;45943;53.148;8.204;2023-08-12T08:37:53;50.51;38.12;65.50;;
49215;Laerm;45943;53.148;8.204;2023-08-12T08:40:19;57.42;39.55;73.64;;
49215;Laerm;45943;53.148;8.204;2023-08-12T08:42:46;44.79;37.72;59.18;;
49215;Laerm;45943;53.148;8.204;2023-08-12T08:45:17;47.04;36.54;61.96;;
49215;Laerm;45943;53.148;8.204;2023-08-12T08:47:44;49.00;38.12;60.96;;
49215;Laerm;45943;53.148;8.204;2023-08-12T08:50:11;49.80;38.48;74.69;;
49215;Laerm;45943;53.148;8.204;2023-08-12T08:52:39;59.09;39.12;71.87;;
49215;Laerm;45943;53.148;8.204;2023-08-12T08:55:05;58.00;38.48;73.01;;
49215;Laerm;45943;53.148;8.204;2023-08-12T08:57:31;41.76;37.51;48.72;;
49215;Laerm;45943;53.148;8.204;2023-08-12T08:59:58;50.23;38.65;62.60;;
49215;Laerm;45943;53.148;8.204;2023-08-12T09:02:24;50.63;38.65;60.98;;
49215;Laerm;45943;53.148;8.204;2023-08-12T09:04:51;50.13;38.81;60.29;;
49215;Laerm;45943;53.148;8.204;2023-08-12T09:07:18;47.18;39.27;62.17;;
49215;Laerm;45943;53.148;8.204;2023-08-12T09:09:46;53.86;38.65;70.06;;
49215;Laerm;45943;53.148;8.204;2023-08-12T09:12:15;49.82;38.65;61.69;;
49215;Laerm;45943;53.148;8.204;2023-08-12T09:14:42;45.97;37.72;56.45;;
49215;Laerm;45943;53.148;8.204;2023-08-12T09:17:09;47.13;36.26;60.69;;
49215;Laerm;45943;53.148;8.204;2023-08-12T09:19:35;47.07;38.12;59.47;;
49215;Laerm;45943;53.148;8.204;2023-08-12T09:22:05;56.22;39.81;71.62;;
49215;Laerm;45943;53.148;8.204;2023-08-12T09:24:35;54.26;42.63;68.12;;
49215;Laerm;45943;53.148;8.204;2023-08-12T09:27:01;53.30;42.69;66.61;;
49215;Laerm;45943;53.148;8.204;2023-08-12T09:29:34;55.30;42.35;69.04;;
49215;Laerm;45943;53.148;8.204;2023-08-12T09:34:33;49.25;41.49;66.20;;
49215;Laerm;45943;53.148;8.204;2023-08-12T09:36:59;52.77;43.79;69.06;;
49215;Laerm;45943;53.148;8.204;2023-08-12T09:39:29;57.62;43.58;81.48;;
49215;Laerm;45943;53.148;8.204;2023-08-12T09:41:59;53.62;45.87;66.93;;
49215;Laerm;45943;53.148;8.204;2023-08-12T09:44:27;55.14;46.54;72.32;;
49215;Laerm;45943;53.148;8.204;2023-08-12T09:46:59;63.20;44.95;88.65;;
49215;Laerm;45943;53.148;8.204;2023-08-12T09:49:28;53.79;42.06;75.97;;
49215;Laerm;45943;53.148;8.204;2023-08-12T09:51:54;61.36;42.28;83.61;;
49215;Laerm;45943;53.148;8.204;2023-08-12T09:54:21;69.94;41.13;86.62;;
49215;Laerm;45943;53.148;8.204;2023-08-12T09:56:48;51.21;41.13;70.68;;
49215;Laerm;45943;53.148;8.204;2023-08-12T09:59:19;54.23;41.40;83.20;;
49215;Laerm;45943;53.148;8.204;2023-08-12T10:01:49;52.80;41.40;69.60;;
49215;Laerm;45943;53.148;8.204;2023-08-12T10:04:17;52.51;42.69;66.78;;
49215;Laerm;45943;53.148;8.204;2023-08-12T10:06:44;50.48;42.28;63.20;;
49215;Laerm;45943;53.148;8.204;2023-08-12T10:09:10;53.28;43.74;64.25;;
49215;Laerm;45943;53.148;8.204;2023-08-12T10:11:38;52.93;43.01;70.09;;
49215;Laerm;45943;53.148;8.204;2023-08-12T10:14:04;54.97;42.89;77.59;;
49215;Laerm;45943;53.148;8.204;2023-08-12T10:16:30;69.69;43.36;80.93;;
49215;Laerm;45943;53.148;8.204;2023-08-12T10:19:00;59.87;44.28;74.45;;
49215;Laerm;45943;53.148;8.204;2023-08-12T10:21:27;59.46;48.99;73.69;;
49215;Laerm;45943;53.148;8.204;2023-08-12T10:23:54;56.39;50.18;71.65;;
49215;Laerm;45943;53.148;8.204;2023-08-12T10:26:22;58.57;48.19;72.06;;
49215;Laerm;45943;53.148;8.204;2023-08-12T10:28:48;53.10;45.57;70.18;;
49215;Laerm;45943;53.148;8.204;2023-08-12T10:31:14;57.30;43.53;73.87;;
49215;Laerm;45943;53.148;8.204;2023-08-12T10:33:41;49.24;41.66;63.76;;
49215;Laerm;45943;53.148;8.204;2023-08-12T10:36:08;55.16;41.82;70.86;;
49215;Laerm;45943;53.148;8.204;2023-08-12T10:38:35;55.85;40.83;73.92;;
49215;Laerm;45943;53.148;8.204;2023-08-12T10:41:17;57.00;39.94;69.96;;
49215;Laerm;45943;53.148;8.204;2023-08-12T10:43:56;56.48;39.68;71.21;;
49215;Laerm;45943;53.148;8.204;2023-08-12T10:46:32;61.76;39.12;78.73;;
49215;Laerm;45943;53.148;8.204;2023-08-12T10:54:27;51.58;38.81;66.92;;
49215;Laerm;45943;53.148;8.204;2023-08-12T10:59:50;52.29;38.97;69.59;;
49215;Laerm;45943;53.148;8.204;2023-08-12T11:02:22;51.53;38.47;67.32;;
49215;Laerm;45943;53.148;8.204;2023-08-12T11:04:52;54.70;38.81;68.21;;
49215;Laerm;45943;53.148;8.204;2023-08-12T11:07:21;49.97;38.48;65.92;;
49215;Laerm;45943;53.148;8.204;2023-08-12T11:09:51;52.42;38.65;66.52;;
49215;Laerm;45943;53.148;8.204;2023-08-12T11:12:28;54.27;39.12;74.70;;
49215;Laerm;45943;53.148;8.204;2023-08-12T11:14:54;47.52;39.27;66.38;;
49215;Laerm;45943;53.148;8.204;2023-08-12T11:17:32;50.77;38.30;66.33;;
49215;Laerm;45943;53.148;8.204;2023-08-12T11:19:59;49.20;38.81;64.61;;
49215;Laerm;45943;53.148;8.204;2023-08-12T11:22:25;50.90;39.27;66.28;;
49215;Laerm;45943;53.148;8.204;2023-08-12T11:24:52;57.06;39.27;73.09;;
49215;Laerm;45943;53.148;8.204;2023-08-12T11:27:18;52.88;39.55;71.65;;
49215;Laerm;45943;53.148;8.204;2023-08-12T11:29:44;54.82;38.81;70.68;;
49215;Laerm;45943;53.148;8.204;2023-08-12T11:32:10;51.42;38.12;69.75;;
49215;Laerm;45943;53.148;8.204;2023-08-12T11:34:37;51.49;38.97;68.36;;
49215;Laerm;45943;53.148;8.204;2023-08-12T11:37:03;48.86;38.65;67.28;;
49215;Laerm;45943;53.148;8.204;2023-08-12T11:39:29;57.42;38.12;71.71;;
49215;Laerm;45943;53.148;8.204;2023-08-12T11:41:56;50.04;38.12;66.65;;
49215;Laerm;45943;53.148;8.204;2023-08-12T11:44:23;52.83;39.55;68.78;;
49215;Laerm;45943;53.148;8.204;2023-08-12T11:46:49;51.89;38.62;67.06;;
49215;Laerm;45943;53.148;8.204;2023-08-12T11:49:15;50.72;37.29;67.57;;
49215;Laerm;45943;53.148;8.204;2023-08-12T11:51:43;52.93;38.97;67.36;;
49215;Laerm;45943;53.148;8.204;2023-08-12T11:54:12;63.13;38.65;74.99;;
49215;Laerm;45943;53.148;8.204;2023-08-12T11:56:39;51.43;37.92;67.11;;
49215;Laerm;45943;53.148;8.204;2023-08-12T11:59:05;48.21;37.92;65.79;;
49215;Laerm;45943;53.148;8.204;2023-08-12T12:01:31;48.51;38.81;65.74;;
49215;Laerm;45943;53.148;8.204;2023-08-12T12:04:00;65.53;38.65;74.94;;
49215;Laerm;45943;53.148;8.204;2023-08-12T12:06:33;52.92;39.34;76.87;;
49215;Laerm;45943;53.148;8.204;2023-08-12T12:09:08;48.34;40.18;63.60;;
49215;Laerm;45943;53.148;8.204;2023-08-12T12:11:39;49.96;38.30;70.05;;
49215;Laerm;45943;53.148;8.204;2023-08-12T12:14:07;53.49;38.30;81.59;;
49215;Laerm;45943;53.148;8.204;2023-08-12T12:16:46;48.57;38.97;70.94;;
49215;Laerm;45943;53.148;8.204;2023-08-12T12:19:18;51.36;38.65;76.13;;
49215;Laerm;45943;53.148;8.204;2023-08-12T12:21:51;58.13;39.55;82.91;;
49215;Laerm;45943;53.148;8.204;2023-08-12T12:24:19;54.26;38.97;79.20;;
49215;Laerm;45943;53.148;8.204;2023-08-12T12:26:45;55.18;40.63;75.88;;
49215;Laerm;45943;53.148;8.204;2023-08-12T12:29:13;57.06;39.12;85.46;;
49215;Laerm;45943;53.148;8.204;2023-08-12T12:31:40;52.10;39.94;69.16;;
49215;Laerm;45943;53.148;8.204;2023-08-12T12:34:07;53.13;39.55;75.21;;
49215;Laerm;45943;53.148;8.204;2023-08-12T12:36:36;61.09;38.97;92.75;;
49215;Laerm;45943;53.148;8.204;2023-08-12T12:39:03;56.22;40.06;71.84;;
49215;Laerm;45943;53.148;8.204;2023-08-12T12:41:30;48.76;43.48;59.20;;
49215;Laerm;45943;53.148;8.204;2023-08-12T12:43:56;48.44;43.42;59.37;;
49215;Laerm;45943;53.148;8.204;2023-08-12T12:46:22;47.32;43.25;58.77;;
49215;Laerm;45943;53.148;8.204;2023-08-12T12:48:48;51.07;41.79;61.84;;
49215;Laerm;45943;53.148;8.204;2023-08-12T12:51:14;51.51;43.25;68.25;;
49215;Laerm;45943;53.148;8.204;2023-08-12T12:53:40;48.78;40.83;64.68;;
49215;Laerm;45943;53.148;8.204;2023-08-12T12:56:07;52.67;40.83;66.02;;
49215;Laerm;45943;53.148;8.204;2023-08-12T12:58:33;50.41;41.49;65.77;;
49215;Laerm;45943;53.148;8.204;2023-08-12T13:01:00;51.87;41.03;62.21;;
49215;Laerm;45943;53.148;8.204;2023-08-12T13:03:27;51.25;40.41;63.49;;
49215;Laerm;45943;53.148;8.204;2023-08-12T13:05:54;54.45;41.22;78.27;;
49215;Laerm;45943;53.148;8.204;2023-08-12T13:08:20;47.42;41.90;64.59;;
49215;Laerm;45943;53.148;8.204;2023-08-12T13:10:46;50.34;41.58;62.33;;
49215;Laerm;45943;53.148;8.204;2023-08-12T13:13:14;48.19;41.82;60.86;;
49215;Laerm;45943;53.148;8.204;2023-08-12T13:15:42;50.76;42.21;63.58;;
49215;Laerm;45943;53.148;8.204;2023-08-12T13:18:09;55.66;42.56;70.54;;
49215;Laerm;45943;53.148;8.204;2023-08-12T13:20:35;55.02;42.63;70.04;;
49215;Laerm;45943;53.148;8.204;2023-08-12T13:23:04;51.52;42.95;65.21;;
49215;Laerm;45943;53.148;8.204;2023-08-12T13:25:32;51.42;43.79;65.75;;
49215;Laerm;45943;53.148;8.204;2023-08-12T13:28:03;52.54;44.18;63.83;;
49215;Laerm;45943;53.148;8.204;2023-08-12T13:30:29;50.35;43.48;61.76;;
49215;Laerm;45943;53.148;8.204;2023-08-12T13:32:56;49.15;43.64;61.26;;
49215;Laerm;45943;53.148;8.204;2023-08-12T13:35:28;49.11;43.48;60.39;;
49215;Laerm;45943;53.148;8.204;2023-08-12T13:37:54;52.28;43.24;62.68;;
49215;Laerm;45943;53.148;8.204;2023-08-12T13:40:20;56.32;43.88;73.03;;
49215;Laerm;45943;53.148;8.204;2023-08-12T13:42:46;50.16;43.31;60.85;;
49215;Laerm;45943;53.148;8.204;2023-08-12T13:45:13;47.50;42.89;60.66;;
49215;Laerm;45943;53.148;8.204;2023-08-12T13:47:39;51.11;42.49;67.29;;
49215;Laerm;45943;53.148;8.204;2023-08-12T13:50:05;49.83;42.56;66.96;;
49215;Laerm;45943;53.148;8.204;2023-08-12T13:52:31;47.59;42.13;61.80;;
49215;Laerm;45943;53.148;8.204;2023-08-12T13:54:58;49.65;41.82;64.79;;
49215;Laerm;45943;53.148;8.204;2023-08-12T13:57:24;46.81;41.31;58.54;;
49215;Laerm;45943;53.148;8.204;2023-08-12T13:59:50;48.31;41.90;62.97;;
49215;Laerm;45943;53.148;8.204;2023-08-12T14:02:16;46.21;42.28;58.72;;
49215;Laerm;45943;53.148;8.204;2023-08-12T14:04:42;52.41;42.06;72.18;;
49215;Laerm;45943;53.148;8.204;2023-08-12T14:07:08;49.34;42.76;64.41;;
49215;Laerm;45943;53.148;8.204;2023-08-12T14:09:34;46.91;42.15;61.48;;
49215;Laerm;45943;53.148;8.204;2023-08-12T14:12:00;49.94;42.13;62.80;;
49215;Laerm;45943;53.148;8.204;2023-08-12T14:14:26;49.58;42.28;62.31;;
49215;Laerm;45943;53.148;8.204;2023-08-12T14:16:55;58.02;42.13;78.35;;
49215;Laerm;45943;53.148;8.204;2023-08-12T14:19:22;52.81;42.13;70.90;;
49215;Laerm;45943;53.148;8.204;2023-08-12T14:21:48;50.88;42.06;63.46;;
49215;Laerm;45943;53.148;8.204;2023-08-12T14:24:14;50.59;41.98;64.94;;
49215;Laerm;45943;53.148;8.204;2023-08-12T14:26:40;48.30;42.56;60.13;;
49215;Laerm;45943;53.148;8.204;2023-08-12T14:29:06;48.04;42.56;59.53;;
49215;Laerm;45943;53.148;8.204;2023-08-12T14:31:33;49.32;42.15;66.63;;
49215;Laerm;45943;53.148;8.204;2023-08-12T14:34:00;48.41;40.06;64.79;;
49215;Laerm;45943;53.148;8.204;2023-08-12T14:36:27;50.30;39.81;64.14;;
49215;Laerm;45943;53.148;8.204;2023-08-12T14:38:53;55.93;39.94;81.21;;
49215;Laerm;45943;53.148;8.204;2023-08-12T14:41:19;61.78;40.18;95.33;;
49215;Laerm;45943;53.148;8.204;2023-08-12T14:43:45;50.40;40.52;70.73;;
49215;Laerm;45943;53.148;8.204;2023-08-12T14:46:11;56.30;41.13;73.51;;
49215;Laerm;45943;53.148;8.204;2023-08-12T14:48:37;59.45;42.28;78.74;;
49215;Laerm;45943;53.148;8.204;2023-08-12T14:51:03;59.70;41.13;82.85;;
49215;Laerm;45943;53.148;8.204;2023-08-12T14:53:29;66.41;40.83;92.91;;
49215;Laerm;45943;53.148;8.204;2023-08-12T14:55:56;62.18;41.03;90.20;;
49215;Laerm;45943;53.148;8.204;2023-08-12T14:58:22;59.47;40.18;87.08;;
49215;Laerm;45943;53.148;8.204;2023-08-12T15:00:48;62.27;39.81;89.13;;
49215;Laerm;45943;53.148;8.204;2023-08-12T15:03:14;50.85;39.27;78.69;;
49215;Laerm;45943;53.148;8.204;2023-08-12T15:05:40;45.87;40.41;60.70;;
49215;Laerm;45943;53.148;8.204;2023-08-12T15:08:06;46.92;38.48;62.62;;
49215;Laerm;45943;53.148;8.204;2023-08-12T15:10:33;44.35;38.81;57.87;;
49215;Laerm;45943;53.148;8.204;2023-08-12T15:12:59;48.24;39.27;61.56;;
49215;Laerm;45943;53.148;8.204;2023-08-12T15:15:25;46.31;40.63;61.97;;
49215;Laerm;45943;53.148;8.204;2023-08-12T15:17:51;49.22;40.73;61.77;;
49215;Laerm;45943;53.148;8.204;2023-08-12T15:20:17;46.74;41.31;62.97;;
49215;Laerm;45943;53.148;8.204;2023-08-12T15:22:43;50.59;42.28;66.94;;
49215;Laerm;45943;53.148;8.204;2023-08-12T15:25:09;50.91;43.84;64.22;;
49215;Laerm;45943;53.148;8.204;2023-08-12T15:27:35;50.44;41.58;65.34;;
49215;Laerm;45943;53.148;8.204;2023-08-12T15:30:01;52.67;41.03;65.57;;
49215;Laerm;45943;53.148;8.204;2023-08-12T15:32:27;63.23;42.35;76.47;;
49215;Laerm;45943;53.148;8.204;2023-08-12T15:34:53;49.66;41.03;60.48;;
49215;Laerm;45943;53.148;8.204;2023-08-12T15:37:19;46.19;41.40;61.17;;
49215;Laerm;45943;53.148;8.204;2023-08-12T15:39:47;57.41;42.56;75.49;;
49215;Laerm;45943;53.148;8.204;2023-08-12T15:42:13;57.56;42.89;72.93;;
49215;Laerm;45943;53.148;8.204;2023-08-12T15:44:42;52.31;42.49;64.08;;
49215;Laerm;45943;53.148;8.204;2023-08-12T15:47:08;48.30;41.58;63.34;;
49215;Laerm;45943;53.148;8.204;2023-08-12T15:49:34;49.83;41.98;62.59;;
49215;Laerm;45943;53.148;8.204;2023-08-12T15:52:00;55.26;42.21;72.60;;